createdAt,value
2023-02-19T00:00:15.028Z,14.10
2023-02-19T00:02:43.724Z,14.20
2023-02-19T00:05:12.387Z,13.20
2023-02-19T00:07:40.639Z,13.80
2023-02-19T00:10:10.784Z,13.00
2023-02-19T00:12:39.071Z,13.20
2023-02-19T00:15:08.112Z,13.80
2023-02-19T00:17:36.466Z,14.20
2023-02-19T00:20:06.735Z,13.90
2023-02-19T00:22:35.029Z,12.40
2023-02-19T00:25:03.352Z,12.90
2023-02-19T00:27:32.937Z,13.00
2023-02-19T00:30:01.267Z,11.50
2023-02-19T00:32:29.848Z,12.70
2023-02-19T00:34:58.791Z,14.00
2023-02-19T00:37:28.617Z,13.00
2023-02-19T00:39:57.397Z,13.30
2023-02-19T00:42:26.314Z,12.50
2023-02-19T00:44:54.700Z,11.70
2023-02-19T00:47:22.945Z,16.30
2023-02-19T00:49:52.103Z,12.50
2023-02-19T00:52:21.748Z,12.40
2023-02-19T00:54:50.619Z,12.70
2023-02-19T00:57:18.957Z,12.30
2023-02-19T00:59:47.260Z,12.40
2023-02-19T01:02:16.680Z,12.40
2023-02-19T01:04:45.005Z,12.20
2023-02-19T01:07:13.379Z,11.60
2023-02-19T01:09:41.727Z,11.10
2023-02-19T01:12:10.131Z,11.00
2023-02-19T01:14:39.032Z,12.00
2023-02-19T01:17:11.855Z,12.00
2023-02-19T01:19:40.599Z,13.40
2023-02-19T01:22:08.908Z,12.70
2023-02-19T01:24:37.844Z,12.60
2023-02-19T01:27:06.304Z,12.50
2023-02-19T01:29:34.676Z,12.20
2023-02-19T01:32:03.117Z,13.10
2023-02-19T01:34:35.862Z,13.20
2023-02-19T01:37:05.964Z,13.50
2023-02-19T01:39:34.170Z,13.80
2023-02-19T01:42:03.347Z,11.70
2023-02-19T01:44:31.769Z,10.70
2023-02-19T01:46:59.967Z,11.20
2023-02-19T01:49:30.114Z,9.80
2023-02-19T01:52:04.412Z,10.20
2023-02-19T01:54:35.056Z,10.70
2023-02-19T01:57:04.867Z,9.60
2023-02-19T01:59:33.403Z,10.20
2023-02-19T02:02:02.279Z,9.90
2023-02-19T02:04:32.992Z,10.90
2023-02-19T02:07:02.464Z,11.00
2023-02-19T02:09:49.979Z,10.70
2023-02-19T02:14:51.192Z,9.80
2023-02-19T02:17:30.694Z,11.10
2023-02-19T02:20:14.812Z,9.50
2023-02-19T02:22:57.788Z,9.20
2023-02-19T02:25:44.757Z,7.90
2023-02-19T02:28:40.782Z,8.20
2023-02-19T02:31:15.725Z,8.90
2023-02-19T02:33:54.845Z,10.10
2023-02-19T02:36:35.507Z,10.70
2023-02-19T02:39:07.379Z,9.70
2023-02-19T02:41:42.440Z,9.50
2023-02-19T02:44:11.503Z,9.10
2023-02-19T02:46:41.693Z,8.80
2023-02-19T02:51:48.017Z,9.30
2023-02-19T02:55:04.100Z,9.20
2023-02-19T02:57:33.670Z,8.90
2023-02-19T03:00:02.016Z,8.60
2023-02-19T03:02:31.746Z,8.80
2023-02-19T03:05:39.374Z,9.30
2023-02-19T03:08:16.579Z,9.60
2023-02-19T03:10:47.951Z,9.00
2023-02-19T03:13:54.862Z,10.00
2023-02-19T03:16:45.447Z,8.60
2023-02-19T03:19:21.875Z,9.10
2023-02-19T03:22:13.317Z,9.60
2023-02-19T03:25:06.279Z,9.50
2023-02-19T03:27:35.138Z,11.10
2023-02-19T03:30:08.272Z,10.20
2023-02-19T03:32:40.620Z,11.30
2023-02-19T03:35:16.867Z,11.90
2023-02-19T03:37:56.136Z,11.00
2023-02-19T03:40:26.237Z,10.00
2023-02-19T03:43:06.987Z,10.80
2023-02-19T03:45:45.360Z,10.70
2023-02-19T03:48:36.408Z,10.60
2023-02-19T03:51:21.080Z,10.70
2023-02-19T03:54:03.738Z,9.60
2023-02-19T03:56:40.808Z,11.10
2023-02-19T03:59:30.493Z,10.90
2023-02-19T04:02:06.722Z,11.00
2023-02-19T04:04:38.298Z,10.10
2023-02-19T04:07:06.631Z,10.40
2023-02-19T04:09:39.349Z,10.70
2023-02-19T04:12:12.692Z,10.80
2023-02-19T04:14:46.173Z,10.90
2023-02-19T04:17:20.175Z,11.20
2023-02-19T04:19:48.910Z,10.90
2023-02-19T04:22:17.591Z,10.30
2023-02-19T04:24:50.447Z,11.60
2023-02-19T04:27:18.792Z,10.60
2023-02-19T04:29:48.054Z,10.10
2023-02-19T04:32:16.285Z,10.70
2023-02-19T04:34:44.593Z,10.90
2023-02-19T04:37:12.993Z,11.60
2023-02-19T04:39:41.396Z,12.10
2023-02-19T04:42:10.652Z,12.80
2023-02-19T04:44:39.111Z,11.80
2023-02-19T04:47:07.331Z,13.30
2023-02-19T04:49:36.398Z,12.00
2023-02-19T04:52:05.655Z,13.20
2023-02-19T04:54:35.497Z,13.00
2023-02-19T04:57:03.904Z,14.30
2023-02-19T04:59:32.919Z,13.80
2023-02-19T05:02:02.466Z,15.10
2023-02-19T05:04:32.920Z,14.10
2023-02-19T05:07:02.094Z,14.50
2023-02-19T05:09:32.590Z,16.30
2023-02-19T05:12:00.846Z,14.70
2023-02-19T05:14:29.326Z,14.20
2023-02-19T05:16:57.651Z,14.20
2023-02-19T05:19:30.810Z,15.20
2023-02-19T05:21:59.237Z,15.20
2023-02-19T05:24:28.619Z,15.40
2023-02-19T05:26:57.194Z,16.50
2023-02-19T05:29:25.649Z,16.80
2023-02-19T05:31:54.153Z,16.90
2023-02-19T05:34:22.532Z,17.20
2023-02-19T05:36:51.767Z,17.90
2023-02-19T05:39:20.223Z,17.80
2023-02-19T05:41:48.609Z,18.90
2023-02-19T05:44:16.845Z,17.30
2023-02-19T05:46:45.312Z,16.00
2023-02-19T05:49:14.065Z,16.60
2023-02-19T05:51:42.840Z,15.20
2023-02-19T05:54:11.542Z,16.10
2023-02-19T05:56:42.161Z,15.60
2023-02-19T05:59:16.945Z,16.10
2023-02-19T06:01:45.410Z,20.30
2023-02-19T06:04:14.443Z,17.30
2023-02-19T06:06:42.835Z,18.70
2023-02-19T06:09:12.480Z,17.50
2023-02-19T06:11:40.848Z,16.10
2023-02-19T06:14:14.509Z,16.00
2023-02-19T06:16:44.215Z,17.70
2023-02-19T06:19:12.508Z,18.10
2023-02-19T06:21:41.624Z,15.70
2023-02-19T06:24:10.755Z,15.70
2023-02-19T06:26:39.600Z,15.70
2023-02-19T06:29:07.890Z,15.50
2023-02-19T06:31:36.656Z,16.80
2023-02-19T06:34:05.452Z,14.00
2023-02-19T06:36:34.913Z,14.20
2023-02-19T06:39:03.893Z,14.20
2023-02-19T06:41:32.709Z,12.30
2023-02-19T06:44:02.031Z,12.60
2023-02-19T06:46:30.627Z,11.10
2023-02-19T06:48:59.745Z,10.70
2023-02-19T06:51:29.909Z,9.90
2023-02-19T06:53:58.655Z,9.90
2023-02-19T06:56:31.900Z,9.80
2023-02-19T06:59:01.716Z,10.40
2023-02-19T07:01:31.162Z,9.20
2023-02-19T07:04:00.847Z,9.10
2023-02-19T07:06:29.601Z,10.40
2023-02-19T07:09:00.445Z,9.90
2023-02-19T07:11:31.580Z,8.30
2023-02-19T07:14:00.932Z,7.60
2023-02-19T07:16:29.798Z,7.70
2023-02-19T07:18:58.965Z,7.20
2023-02-19T07:21:31.506Z,4.50
2023-02-19T07:24:00.443Z,4.20
2023-02-19T07:26:34.616Z,4.20
2023-02-19T07:29:03.366Z,5.30
2023-02-19T07:31:31.765Z,4.40
2023-02-19T07:34:00.420Z,4.40
2023-02-19T07:36:29.816Z,3.90
2023-02-19T07:38:59.428Z,3.70
2023-02-19T07:41:28.402Z,3.40
2023-02-19T07:43:59.153Z,4.00
2023-02-19T07:46:30.195Z,3.50
2023-02-19T07:48:59.821Z,5.00
2023-02-19T07:54:01.548Z,3.60
2023-02-19T07:56:31.443Z,3.60
2023-02-19T07:59:00.729Z,4.30
2023-02-19T08:01:48.716Z,4.40
2023-02-19T08:04:17.229Z,4.60
2023-02-19T08:06:46.831Z,4.20
2023-02-19T08:09:15.085Z,4.40
2023-02-19T08:12:01.993Z,5.10
2023-02-19T08:14:32.406Z,5.30
2023-02-19T08:17:01.142Z,5.20
2023-02-19T08:19:29.646Z,5.10
2023-02-19T08:21:58.204Z,5.10
2023-02-19T08:24:29.108Z,5.60
2023-02-19T08:26:57.333Z,5.40
2023-02-19T08:29:25.644Z,5.10
2023-02-19T08:31:53.867Z,4.70
2023-02-19T08:34:22.278Z,4.60
2023-02-19T08:36:50.837Z,4.90
2023-02-19T08:39:21.000Z,5.10
2023-02-19T08:41:52.805Z,5.70
2023-02-19T08:44:21.483Z,4.90
2023-02-19T08:46:54.879Z,5.20
2023-02-19T08:49:28.006Z,5.00
2023-02-19T08:51:57.060Z,5.60
2023-02-19T08:54:25.662Z,6.50
2023-02-19T08:56:54.305Z,5.10
2023-02-19T08:59:22.561Z,5.30
2023-02-19T09:01:52.842Z,5.60
2023-02-19T09:04:21.206Z,5.60
2023-02-19T09:06:49.481Z,5.00
2023-02-19T09:09:18.303Z,5.10
2023-02-19T09:11:49.222Z,5.30
2023-02-19T09:14:18.347Z,5.60
2023-02-19T09:16:47.166Z,5.90
2023-02-19T09:19:15.585Z,5.50
2023-02-19T09:21:43.854Z,4.90
2023-02-19T09:24:12.275Z,5.20
2023-02-19T09:26:41.890Z,4.80
2023-02-19T09:29:10.696Z,4.40
2023-02-19T09:31:39.337Z,4.70
2023-02-19T09:34:07.854Z,4.00
2023-02-19T09:36:36.924Z,3.60
2023-02-19T09:39:07.978Z,3.90
2023-02-19T09:44:06.522Z,4.20
2023-02-19T09:46:44.409Z,4.30
2023-02-19T09:49:18.349Z,5.00
2023-02-19T09:51:55.587Z,5.90
2023-02-19T09:54:26.525Z,5.20
2023-02-19T09:56:55.640Z,4.30
2023-02-19T10:02:02.614Z,4.10
2023-02-19T10:04:31.042Z,5.20
2023-02-19T10:07:03.677Z,5.40
2023-02-19T10:09:32.934Z,5.30
2023-02-19T10:12:01.766Z,6.20
2023-02-19T10:14:31.921Z,5.30
2023-02-19T10:17:04.328Z,4.70
2023-02-19T10:19:34.315Z,4.90
2023-02-19T10:22:04.231Z,5.60
2023-02-19T10:24:35.497Z,6.00
2023-02-19T10:27:09.800Z,4.60
2023-02-19T10:29:40.555Z,4.50
2023-02-19T10:32:18.899Z,4.60
2023-02-19T10:35:10.166Z,4.70
2023-02-19T10:40:22.880Z,4.10
2023-02-19T10:43:01.825Z,4.20
2023-02-19T10:45:40.398Z,3.80
2023-02-19T10:48:19.968Z,5.10
2023-02-19T10:50:56.327Z,3.80
2023-02-19T10:53:35.764Z,3.80
2023-02-19T10:56:10.071Z,2.40
2023-02-19T10:58:40.372Z,2.90
2023-02-19T11:04:18.597Z,2.60
2023-02-19T11:06:48.214Z,2.30
2023-02-19T11:09:26.842Z,2.70
2023-02-19T11:11:57.215Z,2.80
2023-02-19T11:14:25.865Z,2.70
2023-02-19T11:16:58.525Z,2.80
2023-02-19T11:19:37.278Z,2.60
2023-02-19T11:22:38.702Z,2.60
2023-02-19T11:25:07.677Z,3.00
2023-02-19T11:27:37.525Z,2.70
2023-02-19T11:30:35.872Z,2.80
2023-02-19T11:33:33.725Z,2.70
2023-02-19T11:36:23.858Z,2.20
2023-02-19T11:38:52.339Z,2.80
2023-02-19T11:41:43.478Z,2.60
2023-02-19T11:44:12.232Z,2.40
2023-02-19T11:46:48.418Z,2.90
2023-02-19T11:49:29.366Z,2.80
2023-02-19T11:52:48.865Z,2.60
2023-02-19T11:55:52.336Z,2.50
2023-02-19T11:58:48.853Z,2.50
2023-02-19T12:01:35.491Z,2.00
2023-02-19T12:04:18.923Z,2.50
2023-02-19T12:06:55.999Z,2.60
2023-02-19T12:10:00.855Z,2.60
2023-02-19T12:12:47.348Z,2.90
2023-02-19T12:15:16.172Z,2.70
2023-02-19T12:18:07.927Z,3.10
2023-02-19T12:20:58.122Z,3.00
2023-02-19T12:23:48.789Z,3.10
2023-02-19T12:26:27.515Z,3.40
2023-02-19T12:29:28.056Z,3.40
2023-02-19T12:32:17.823Z,3.30
2023-02-19T12:34:53.108Z,3.00
2023-02-19T12:37:35.025Z,3.60
2023-02-19T12:40:28.560Z,3.30
2023-02-19T12:43:17.216Z,3.20
2023-02-19T12:45:47.526Z,3.70
2023-02-19T12:48:34.492Z,5.50
2023-02-19T12:51:08.923Z,4.10
2023-02-19T12:53:39.553Z,3.50
2023-02-19T12:56:15.174Z,3.60
2023-02-19T12:58:52.866Z,4.50
2023-02-19T13:01:26.987Z,5.30
2023-02-19T13:04:25.666Z,4.20
2023-02-19T13:06:57.969Z,4.10
2023-02-19T13:09:38.911Z,4.30
2023-02-19T13:12:41.335Z,4.40
2023-02-19T13:15:26.567Z,3.90
2023-02-19T13:17:56.160Z,3.70
2023-02-19T13:20:36.607Z,3.80
2023-02-19T13:23:27.673Z,3.60
2023-02-19T13:26:09.405Z,3.80
2023-02-19T13:28:47.569Z,3.40
2023-02-19T13:31:35.071Z,3.50
2023-02-19T13:34:20.337Z,3.60
2023-02-19T13:36:49.132Z,3.50
2023-02-19T13:39:17.638Z,3.50
2023-02-19T13:41:52.086Z,5.60
2023-02-19T13:44:26.106Z,4.10
2023-02-19T13:46:55.462Z,3.40
2023-02-19T13:49:31.985Z,3.50
2023-02-19T13:52:34.891Z,3.60
2023-02-19T13:55:42.978Z,2.70
2023-02-19T13:58:33.154Z,2.70
2023-02-19T14:01:13.722Z,2.40
2023-02-19T14:04:06.779Z,2.90
2023-02-19T14:07:07.047Z,2.60
2023-02-19T14:09:44.094Z,3.00
2023-02-19T14:12:15.933Z,2.90
2023-02-19T14:14:46.583Z,3.00
2023-02-19T14:17:36.267Z,3.30
2023-02-19T14:20:36.913Z,3.50
2023-02-19T14:23:22.946Z,3.30
2023-02-19T14:25:54.258Z,3.60
2023-02-19T14:31:09.595Z,4.40
2023-02-19T14:33:40.741Z,4.50
2023-02-19T14:36:39.180Z,4.20
2023-02-19T14:39:11.710Z,3.50
2023-02-19T14:41:41.613Z,3.50
2023-02-19T14:44:16.832Z,6.70
2023-02-19T14:46:53.252Z,3.90
2023-02-19T14:49:28.752Z,3.50
2023-02-19T14:52:01.623Z,4.40
2023-02-19T14:54:43.924Z,3.60
2023-02-19T14:57:19.384Z,4.80
2023-02-19T15:00:02.198Z,4.80
2023-02-19T15:02:32.244Z,4.50
2023-02-19T15:05:00.879Z,4.60
2023-02-19T15:07:32.962Z,5.00
2023-02-19T15:10:06.806Z,5.50
2023-02-19T15:12:47.696Z,5.10
2023-02-19T15:15:29.371Z,5.50
2023-02-19T15:17:59.338Z,5.70
2023-02-19T15:20:34.289Z,6.60
2023-02-19T15:23:07.358Z,6.80
2023-02-19T15:25:40.640Z,7.20
2023-02-19T15:28:26.379Z,6.10
2023-02-19T15:30:57.978Z,6.10
2023-02-19T15:33:27.923Z,6.10
2023-02-19T15:36:01.161Z,6.10
2023-02-19T15:38:30.157Z,6.10
2023-02-19T15:40:58.825Z,6.70
2023-02-19T15:43:33.295Z,5.60
2023-02-19T15:46:04.808Z,6.60
2023-02-19T15:48:41.475Z,6.40
2023-02-19T15:51:15.364Z,8.00
2023-02-19T15:53:48.078Z,9.00
2023-02-19T15:56:28.743Z,8.50
2023-02-19T15:59:02.161Z,6.90
2023-02-19T16:01:36.647Z,6.50
2023-02-19T16:04:09.126Z,6.50
2023-02-19T16:07:00.741Z,6.20
2023-02-19T16:09:33.737Z,5.70
2023-02-19T16:12:02.783Z,5.30
2023-02-19T16:14:32.311Z,4.90
2023-02-19T16:17:10.385Z,5.30
2023-02-19T16:20:00.692Z,4.60
2023-02-19T16:22:31.132Z,6.10
2023-02-19T16:25:03.692Z,5.30
2023-02-19T16:27:37.311Z,5.70
2023-02-19T16:30:10.803Z,5.50
2023-02-19T16:32:40.630Z,6.20
2023-02-19T16:35:35.681Z,5.50
2023-02-19T16:38:20.176Z,4.70
2023-02-19T16:40:48.946Z,4.70
2023-02-19T16:43:30.604Z,5.50
2023-02-19T16:45:59.457Z,5.20
2023-02-19T16:48:28.059Z,6.30
2023-02-19T16:51:01.629Z,5.50
2023-02-19T16:53:30.814Z,4.70
2023-02-19T16:56:00.096Z,5.00
2023-02-19T16:58:29.829Z,4.70
2023-02-19T17:00:58.358Z,5.30
2023-02-19T17:03:28.053Z,4.90
2023-02-19T17:05:56.414Z,4.70
2023-02-19T17:08:35.324Z,4.50
2023-02-19T17:11:11.726Z,4.80
2023-02-19T17:13:40.997Z,4.60
2023-02-19T17:16:13.736Z,4.60
2023-02-19T17:18:43.465Z,5.00
2023-02-19T17:21:19.914Z,4.50
2023-02-19T17:23:48.245Z,4.60
2023-02-19T17:26:24.683Z,4.60
2023-02-19T17:28:56.532Z,4.40
2023-02-19T17:31:25.127Z,4.20
2023-02-19T17:33:53.615Z,4.20
2023-02-19T17:36:32.996Z,4.30
2023-02-19T17:39:02.814Z,4.50
2023-02-19T17:41:31.654Z,4.00
2023-02-19T17:44:00.383Z,4.90
2023-02-19T17:46:28.887Z,4.00
2023-02-19T17:48:57.300Z,4.30
2023-02-19T17:51:25.831Z,4.00
2023-02-19T17:53:54.183Z,4.30
2023-02-19T17:56:26.508Z,4.90
2023-02-19T17:58:55.886Z,4.00
2023-02-19T18:01:24.662Z,4.40
2023-02-19T18:03:53.232Z,4.20
2023-02-19T18:06:21.668Z,4.50
2023-02-19T18:08:52.903Z,4.10
2023-02-19T18:11:22.796Z,4.60
2023-02-19T18:13:55.298Z,4.60
2023-02-19T18:16:24.525Z,5.20
2023-02-19T18:18:53.295Z,5.60
2023-02-19T18:21:24.720Z,4.60
2023-02-19T18:23:53.701Z,5.10
2023-02-19T18:26:23.962Z,5.50
2023-02-19T18:28:52.921Z,5.50
2023-02-19T18:31:23.459Z,5.20
2023-02-19T18:33:52.307Z,6.30
2023-02-19T18:36:21.350Z,5.40
2023-02-19T18:38:50.032Z,6.40
2023-02-19T18:41:21.398Z,6.10
2023-02-19T18:43:51.080Z,5.90
2023-02-19T18:46:21.090Z,6.00
2023-02-19T18:48:50.332Z,6.00
2023-02-19T18:51:23.559Z,6.60
2023-02-19T18:53:54.178Z,6.10
2023-02-19T18:56:23.214Z,6.70
2023-02-19T18:58:52.031Z,6.30
2023-02-19T19:01:20.415Z,6.80
2023-02-19T19:03:55.856Z,20.50
2023-02-19T19:06:25.375Z,7.80
2023-02-19T19:08:54.203Z,7.00
2023-02-19T19:11:23.308Z,7.80
2023-02-19T19:13:52.395Z,7.10
2023-02-19T19:16:25.143Z,7.10
2023-02-19T19:18:53.923Z,6.90
2023-02-19T19:21:22.451Z,7.70
2023-02-19T19:23:51.099Z,7.50
2023-02-19T19:26:20.247Z,7.60
2023-02-19T19:28:49.269Z,8.40
2023-02-19T19:31:18.672Z,9.40
2023-02-19T19:33:47.990Z,7.90
2023-02-19T19:36:20.716Z,8.50
2023-02-19T19:38:50.118Z,8.80
2023-02-19T19:41:19.427Z,9.20
2023-02-19T19:43:48.611Z,8.70
2023-02-19T19:46:20.070Z,8.50
2023-02-19T19:48:50.026Z,9.30
2023-02-19T19:51:18.715Z,9.00
2023-02-19T19:53:47.984Z,9.10
2023-02-19T19:56:18.047Z,8.40
2023-02-19T19:58:48.631Z,8.90
2023-02-19T20:01:21.332Z,10.10
2023-02-19T20:03:51.912Z,10.10
2023-02-19T20:06:25.525Z,10.10
2023-02-19T20:08:57.573Z,10.60
2023-02-19T20:11:26.161Z,9.50
2023-02-19T20:13:54.445Z,10.30
2023-02-19T20:16:28.590Z,10.70
2023-02-19T20:18:57.062Z,10.60
2023-02-19T20:21:26.827Z,10.30
2023-02-19T20:23:55.887Z,9.90
2023-02-19T20:26:25.860Z,9.50
2023-02-19T20:28:54.332Z,9.70
2023-02-19T20:31:23.135Z,10.90
2023-02-19T20:33:54.329Z,10.10
2023-02-19T20:36:23.191Z,10.20
2023-02-19T20:38:51.855Z,10.70
2023-02-19T20:41:21.580Z,10.60
2023-02-19T20:43:50.135Z,10.80
2023-02-19T20:46:19.831Z,11.00
2023-02-19T20:48:49.471Z,21.70
2023-02-19T20:51:19.907Z,10.20
2023-02-19T20:53:48.165Z,10.80
2023-02-19T20:56:16.588Z,11.10
2023-02-19T20:58:45.013Z,9.60
2023-02-19T21:01:17.483Z,11.60
2023-02-19T21:03:46.657Z,10.60
2023-02-19T21:06:15.672Z,11.30
2023-02-19T21:08:45.296Z,11.00
2023-02-19T21:11:13.656Z,11.30
2023-02-19T21:13:43.154Z,11.10
2023-02-19T21:16:11.724Z,12.60
2023-02-19T21:18:40.166Z,11.10
2023-02-19T21:21:08.758Z,11.50
2023-02-19T21:23:37.223Z,11.60
2023-02-19T21:26:05.839Z,12.70
2023-02-19T21:28:35.641Z,13.00
2023-02-19T21:31:04.538Z,12.80
2023-02-19T21:33:32.890Z,12.40
2023-02-19T21:36:03.554Z,13.00
2023-02-19T21:38:32.705Z,11.70
2023-02-19T21:41:01.458Z,13.10
2023-02-19T21:43:31.165Z,16.30
2023-02-19T21:46:00.287Z,11.50
2023-02-19T21:48:28.942Z,11.70
2023-02-19T21:50:57.214Z,10.70
2023-02-19T21:53:25.574Z,10.70
2023-02-19T21:55:58.769Z,12.00
2023-02-19T21:58:29.149Z,11.90
2023-02-19T22:00:58.448Z,10.70
2023-02-19T22:03:26.923Z,10.50
2023-02-19T22:05:55.687Z,10.20
2023-02-19T22:08:24.046Z,9.10
2023-02-19T22:10:53.810Z,9.30
2023-02-19T22:13:22.077Z,8.80
2023-02-19T22:15:52.553Z,8.30
2023-02-19T22:18:20.999Z,8.10
2023-02-19T22:20:52.609Z,7.50
2023-02-19T22:23:22.176Z,7.30
2023-02-19T22:25:50.682Z,7.50
2023-02-19T22:28:19.280Z,7.30
2023-02-19T22:30:47.752Z,7.40
2023-02-19T22:33:16.115Z,7.20
2023-02-19T22:35:44.380Z,6.50
2023-02-19T22:38:12.641Z,5.80
2023-02-19T22:40:41.378Z,6.30
2023-02-19T22:43:10.380Z,5.10
2023-02-19T22:45:38.949Z,3.80
2023-02-19T22:48:07.806Z,3.40
2023-02-19T22:50:36.278Z,2.60
2023-02-19T22:53:04.940Z,2.80
2023-02-19T22:55:33.504Z,2.60
2023-02-19T22:58:02.945Z,3.40
2023-02-19T23:00:31.572Z,3.50
2023-02-19T23:02:59.881Z,3.50
2023-02-19T23:05:28.290Z,3.30
2023-02-19T23:07:57.211Z,2.50
2023-02-19T23:10:25.464Z,3.20
2023-02-19T23:12:56.013Z,2.60
2023-02-19T23:15:26.514Z,2.70
2023-02-19T23:17:54.910Z,2.50
2023-02-19T23:20:24.189Z,3.00
2023-02-19T23:22:52.570Z,2.40
2023-02-19T23:25:20.774Z,2.50
2023-02-19T23:27:49.074Z,2.30
2023-02-19T23:30:17.649Z,2.50
2023-02-19T23:32:46.042Z,2.10
2023-02-19T23:35:14.424Z,2.40
2023-02-19T23:37:42.812Z,2.50
2023-02-19T23:40:12.549Z,1.80
2023-02-19T23:42:41.326Z,1.70
2023-02-19T23:45:09.678Z,1.20
2023-02-19T23:47:38.236Z,1.20
2023-02-19T23:50:07.302Z,1.10
2023-02-19T23:52:35.598Z,1.10
2023-02-19T23:55:04.454Z,1.40
2023-02-19T23:57:33.094Z,1.60
